Time;durP1;ratioP1;P1;durP2;ratioP2;P2;SDS_P1;SDS_P2;PMS_P1;PMS_P2;Temp;Humidity;BMP_temperature;BMP_pressure;BME280_temperature;BME280_humidity;BME280_pressure;Samples;Min_cycle;Max_cycle;Signal;HPM_P1;HPM_P2
2022/11/17 00:00:22;;;;;;;20.25;5.28;;;11.20;99.90;;;;;;5101229;28;20090;-61
2022/11/17 00:02:48;;;;;;;28.40;3.97;;;11.20;99.90;;;;;;5095695;28;20052;-62
2022/11/17 00:05:16;;;;;;;15.75;3.85;;;11.20;99.90;;;;;;5088386;28;20131;-61
2022/11/17 00:07:44;;;;;;;12.30;2.85;;;11.20;99.90;;;;;;5094910;28;20134;-62
2022/11/17 00:10:11;;;;;;;26.38;4.25;;;11.20;99.90;;;;;;5104762;28;20096;-63
2022/11/17 00:15:24;;;;;;;23.15;3.33;;;11.20;99.90;;;;;;5072407;28;20271;-62
2022/11/17 00:21:17;;;;;;;16.58;4.18;;;11.20;99.90;;;;;;5076630;28;20486;-61
2022/11/17 00:23:45;;;;;;;16.85;3.47;;;11.20;99.90;;;;;;5094279;28;20039;-62
2022/11/17 00:26:16;;;;;;;17.52;3.10;;;11.30;99.90;;;;;;5096442;28;20079;-62
2022/11/17 00:28:43;;;;;;;17.20;3.25;;;11.20;99.90;;;;;;5076911;28;20052;-62
2022/11/17 00:34:05;;;;;;;19.13;3.00;;;11.30;99.90;;;;;;5066704;28;20036;-63
2022/11/17 00:36:38;;;;;;;19.13;3.00;;;11.30;99.90;;;;;;5056949;28;20058;-63
2022/11/17 00:39:06;;;;;;;24.98;3.35;;;11.30;99.90;;;;;;5101541;28;20066;-62
2022/11/17 00:41:33;;;;;;;16.70;3.30;;;11.30;99.90;;;;;;5095447;28;20052;-62
2022/11/17 00:44:00;;;;;;;17.52;3.13;;;11.30;99.90;;;;;;5067188;28;20131;-62
2022/11/17 00:46:27;;;;;;;16.48;3.90;;;11.30;99.90;;;;;;5086796;28;20062;-61
2022/11/17 00:48:54;;;;;;;22.77;3.15;;;11.30;99.90;;;;;;5099357;28;20044;-61
2022/11/17 00:51:20;;;;;;;16.70;2.70;;;11.30;99.90;;;;;;5099679;28;20051;-61
2022/11/17 00:53:48;;;;;;;19.30;3.08;;;11.30;99.90;;;;;;5099829;28;20035;-62
2022/11/17 00:56:15;;;;;;;13.35;3.33;;;11.30;99.90;;;;;;5063977;28;20136;-62
2022/11/17 00:58:42;;;;;;;22.55;2.88;;;11.30;99.90;;;;;;5098525;28;20046;-62
2022/11/17 01:01:08;;;;;;;15.82;2.60;;;11.30;99.90;;;;;;5099054;28;20053;-63
2022/11/17 01:03:35;;;;;;;18.10;3.50;;;11.30;99.90;;;;;;5081848;28;20549;-62
2022/11/17 01:06:07;;;;;;;16.52;2.90;;;11.30;99.90;;;;;;5096309;28;20056;-62
2022/11/17 01:08:34;;;;;;;18.95;3.00;;;11.40;99.90;;;;;;5080434;28;20062;-64
2022/11/17 01:11:17;;;;;;;18.45;5.03;;;11.40;99.90;;;;;;5101749;28;20047;-61
2022/11/17 01:13:45;;;;;;;11.63;2.70;;;11.40;99.90;;;;;;5085261;28;20130;-61
2022/11/17 01:16:16;;;;;;;17.23;3.00;;;11.40;99.90;;;;;;5088681;28;20048;-61
2022/11/17 01:18:45;;;;;;;12.68;3.47;;;11.40;99.90;;;;;;5093732;28;20082;-62
2022/11/17 01:21:16;;;;;;;11.57;2.72;;;11.50;99.90;;;;;;5089804;28;20047;-62
2022/11/17 01:23:43;;;;;;;20.58;4.63;;;11.50;99.90;;;;;;5082070;28;20062;-61
2022/11/17 01:26:18;;;;;;;14.88;2.63;;;11.50;99.90;;;;;;5068796;28;20062;-61
2022/11/17 01:28:45;;;;;;;15.50;2.08;;;11.50;99.90;;;;;;5101144;28;20051;-62
2022/11/17 01:31:16;;;;;;;12.95;2.50;;;11.50;99.90;;;;;;5083994;28;20054;-62
2022/11/17 01:33:43;;;;;;;12.82;1.80;;;11.40;99.90;;;;;;5085972;28;20402;-62
2022/11/17 01:36:14;;;;;;;7.93;1.45;;;11.40;99.90;;;;;;5098093;28;20203;-62
2022/11/17 01:38:41;;;;;;;8.65;1.85;;;11.30;99.90;;;;;;5092405;28;20055;-61
2022/11/17 01:41:12;;;;;;;14.52;2.40;;;11.40;99.90;;;;;;5111607;28;20138;-61
2022/11/17 01:43:40;;;;;;;10.85;2.53;;;11.30;99.90;;;;;;5089219;28;20044;-63
2022/11/17 01:46:32;;;;;;;6.13;1.35;;;11.30;99.90;;;;;;5084198;28;20044;-62
2022/11/17 01:49:16;;;;;;;8.85;1.52;;;11.30;99.90;;;;;;5077657;28;20062;-61
2022/11/17 01:51:47;;;;;;;8.60;2.13;;;11.30;99.90;;;;;;5081000;28;20060;-61
2022/11/17 01:54:15;;;;;;;10.85;2.00;;;11.30;99.90;;;;;;5076903;28;20469;-61
2022/11/17 01:56:43;;;;;;;15.18;3.10;;;11.30;99.90;;;;;;5082056;28;20414;-62
2022/11/17 01:59:23;;;;;;;15.77;3.00;;;11.30;99.90;;;;;;5109511;28;20090;-62
2022/11/17 02:01:56;;;;;;;12.30;2.75;;;11.30;99.90;;;;;;5080501;28;20533;-61
2022/11/17 02:04:27;;;;;;;14.45;3.38;;;11.30;99.90;;;;;;5089709;28;20048;-61
2022/11/17 02:07:14;;;;;;;17.23;3.72;;;11.30;99.90;;;;;;5093275;28;20518;-61
2022/11/17 02:09:41;;;;;;;27.48;4.97;;;11.20;99.90;;;;;;5075946;28;20039;-61
2022/11/17 02:12:08;;;;;;;20.15;4.72;;;11.20;99.90;;;;;;5101792;28;20047;-65
2022/11/17 02:14:35;;;;;;;40.58;5.93;;;11.10;99.90;;;;;;5076832;28;20517;-61
2022/11/17 02:17:02;;;;;;;21.50;5.47;;;11.10;99.90;;;;;;5067577;28;20563;-62
2022/11/17 02:19:40;;;;;;;29.98;6.35;;;11.10;99.90;;;;;;5075572;28;20047;-62
2022/11/17 02:22:36;;;;;;;26.17;5.90;;;11.10;99.90;;;;;;5091531;28;20062;-62
2022/11/17 02:25:28;;;;;;;26.98;6.47;;;11.10;99.90;;;;;;5091016;28;20065;-62
2022/11/17 02:27:58;;;;;;;22.65;8.93;;;11.00;99.90;;;;;;5103337;28;20113;-62
2022/11/17 02:30:25;;;;;;;28.23;7.70;;;11.00;99.90;;;;;;5107768;28;20130;-62
2022/11/17 02:33:01;;;;;;;23.15;7.60;;;10.90;99.90;;;;;;4731415;28;10000493;-63
2022/11/17 02:35:44;;;;;;;14.05;6.57;;;10.90;99.90;;;;;;5107201;28;20134;-62
2022/11/17 02:38:41;;;;;;;30.63;9.33;;;10.80;99.90;;;;;;5103228;28;20131;-62
2022/11/17 02:41:58;;;;;;;21.50;6.68;;;10.70;99.90;;;;;;5104460;28;20047;-62
2022/11/17 02:44:31;;;;;;;13.02;5.43;;;10.50;99.90;;;;;;5063315;28;20119;-62
2022/11/17 02:47:19;;;;;;;20.65;5.28;;;10.30;99.90;;;;;;5083418;28;20382;-62
2022/11/17 02:49:52;;;;;;;9.30;3.50;;;10.30;99.90;;;;;;5110818;28;20048;-62
2022/11/17 02:52:19;;;;;;;9.52;3.70;;;10.20;99.90;;;;;;5072494;28;20052;-62
2022/11/17 02:54:46;;;;;;;7.22;4.38;;;10.20;99.90;;;;;;5075764;28;20046;-63
2022/11/17 02:57:35;;;;;;;14.38;5.95;;;10.10;99.90;;;;;;5103443;28;20135;-62
2022/11/17 03:00:10;;;;;;;12.60;5.70;;;9.90;99.90;;;;;;5072346;28;20149;-62
2022/11/17 03:03:15;;;;;;;8.30;3.33;;;9.80;99.90;;;;;;5076190;28;20650;-62
2022/11/17 03:06:17;;;;;;;10.55;3.63;;;9.70;99.90;;;;;;5090097;28;20071;-62
2022/11/17 03:08:50;;;;;;;7.70;2.97;;;9.60;99.90;;;;;;5081349;28;20040;-62
2022/11/17 03:11:17;;;;;;;8.13;3.03;;;9.50;99.90;;;;;;5091159;28;20090;-62
2022/11/17 03:13:50;;;;;;;8.35;2.83;;;9.40;99.90;;;;;;5069431;28;20044;-62
2022/11/17 03:16:30;;;;;;;8.10;3.90;;;9.30;99.90;;;;;;5073533;28;20116;-62
2022/11/17 03:19:08;;;;;;;3.30;1.60;;;9.20;99.90;;;;;;5082935;28;20059;-62
2022/11/17 03:21:54;;;;;;;4.35;1.77;;;9.10;99.90;;;;;;5090720;28;20047;-62
2022/11/17 03:24:23;;;;;;;3.08;1.50;;;9.10;99.90;;;;;;5090965;28;20047;-62
2022/11/17 03:26:54;;;;;;;1.58;1.08;;;9.00;99.90;;;;;;5089858;28;20055;-62
2022/11/17 03:29:22;;;;;;;1.95;0.73;;;8.90;99.90;;;;;;5070262;28;20048;-62
2022/11/17 03:31:51;;;;;;;2.67;1.00;;;9.00;99.90;;;;;;5072941;28;20136;-62
2022/11/17 03:34:19;;;;;;;1.55;0.80;;;8.90;99.90;;;;;;5082816;28;20051;-60
2022/11/17 03:36:48;;;;;;;3.15;0.70;;;9.00;99.90;;;;;;5071803;28;20047;-61
2022/11/17 03:39:24;;;;;;;0.63;0.63;;;8.90;99.90;;;;;;5071065;28;20052;-61
2022/11/17 03:41:54;;;;;;;0.30;0.30;;;8.90;99.90;;;;;;5071840;28;20048;-63
2022/11/17 03:44:21;;;;;;;1.00;0.40;;;8.90;99.90;;;;;;5062169;28;20043;-60
2022/11/17 03:46:48;;;;;;;2.03;0.60;;;8.90;99.90;;;;;;5091376;28;20055;-60
2022/11/17 03:49:20;;;;;;;1.27;0.50;;;8.90;99.90;;;;;;5078125;28;20162;-61
2022/11/17 03:51:46;;;;;;;0.40;0.40;;;8.90;99.90;;;;;;5091561;28;20049;-60
2022/11/17 03:54:14;;;;;;;0.30;0.30;;;8.90;99.90;;;;;;5097067;28;20058;-61
2022/11/17 03:56:46;;;;;;;0.40;0.40;;;8.80;99.90;;;;;;5073607;28;20042;-61
2022/11/17 03:59:18;;;;;;;0.77;0.50;;;8.80;99.90;;;;;;5099059;28;20043;-61
2022/11/17 04:01:45;;;;;;;0.52;0.30;;;8.80;99.90;;;;;;5070708;28;20062;-61
2022/11/17 04:04:14;;;;;;;0.40;0.30;;;8.80;99.90;;;;;;5096091;28;20065;-61
2022/11/17 04:06:44;;;;;;;0.20;0.20;;;8.80;99.90;;;;;;5091551;28;20205;-61
2022/11/17 04:09:10;;;;;;;1.02;0.45;;;8.80;99.90;;;;;;5083611;28;20059;-61
2022/11/17 04:17:08;;;;;;;0.40;0.30;;;8.80;99.90;;;;;;5106648;28;20073;-62
2022/11/17 04:19:35;;;;;;;0.80;0.32;;;8.70;99.90;;;;;;5100890;28;20048;-61
2022/11/17 04:22:02;;;;;;;0.20;0.20;;;8.70;99.90;;;;;;5104510;28;20047;-61
2022/11/17 04:24:28;;;;;;;0.65;0.63;;;8.70;99.90;;;;;;5102400;28;20040;-62
2022/11/17 04:29:40;;;;;;;1.77;0.57;;;8.70;99.90;;;;;;5103027;28;20040;-62
2022/11/17 04:32:07;;;;;;;0.68;0.68;;;8.70;99.90;;;;;;5102224;28;20090;-62
2022/11/17 04:34:34;;;;;;;2.05;0.57;;;8.70;99.90;;;;;;5105160;28;20054;-62
2022/11/17 04:37:00;;;;;;;2.97;0.43;;;8.80;99.90;;;;;;5088420;28;20052;-62
2022/11/17 04:39:37;;;;;;;1.38;0.70;;;8.70;99.90;;;;;;5090220;28;20058;-62
2022/11/17 04:42:04;;;;;;;0.90;0.45;;;8.70;99.90;;;;;;5098573;28;20514;-63
2022/11/17 04:44:31;;;;;;;1.85;0.98;;;8.70;99.90;;;;;;5071723;28;20042;-62
2022/11/17 04:46:58;;;;;;;1.80;0.88;;;8.70;99.90;;;;;;5099545;28;20051;-62
2022/11/17 04:49:25;;;;;;;4.30;0.73;;;8.70;99.90;;;;;;5090163;28;20044;-63
2022/11/17 04:51:52;;;;;;;2.55;0.75;;;8.70;99.90;;;;;;5099608;28;20051;-62
2022/11/17 04:54:20;;;;;;;1.95;1.00;;;8.70;99.90;;;;;;5088638;28;20131;-62
2022/11/17 04:56:47;;;;;;;1.08;0.80;;;8.80;99.90;;;;;;5100930;28;20054;-62
2022/11/17 04:59:14;;;;;;;1.95;1.05;;;8.70;99.90;;;;;;5088234;28;20044;-62
2022/11/17 05:01:41;;;;;;;2.15;0.77;;;8.70;99.90;;;;;;5100735;28;20060;-61
2022/11/17 05:04:12;;;;;;;1.98;1.05;;;8.70;99.90;;;;;;5088644;28;20048;-61
2022/11/17 05:06:43;;;;;;;1.80;1.15;;;8.70;99.90;;;;;;5100184;28;20083;-61
2022/11/17 05:09:12;;;;;;;2.20;0.93;;;8.70;99.90;;;;;;5090271;28;20055;-63
2022/11/17 05:14:25;;;;;;;2.85;0.93;;;8.70;99.90;;;;;;5076898;28;20054;-62
2022/11/17 05:17:03;;;;;;;3.85;1.25;;;8.70;99.90;;;;;;5103285;28;20043;-62
2022/11/17 05:19:43;;;;;;;1.85;1.15;;;8.70;99.90;;;;;;5076884;28;20055;-65
2022/11/17 05:24:57;;;;;;;4.10;1.25;;;8.70;99.90;;;;;;5092016;28;20044;-60
2022/11/17 05:27:23;;;;;;;3.25;1.60;;;8.70;99.90;;;;;;5104785;28;20050;-60
2022/11/17 05:29:50;;;;;;;5.97;1.70;;;8.70;99.90;;;;;;5112490;28;20048;-61
2022/11/17 05:32:17;;;;;;;4.32;1.30;;;8.70;99.90;;;;;;5101885;28;20283;-61
2022/11/17 05:34:44;;;;;;;3.00;1.55;;;8.70;99.90;;;;;;5091875;28;20044;-62
2022/11/17 05:37:11;;;;;;;1.80;1.10;;;8.70;99.90;;;;;;5085939;28;20438;-63
2022/11/17 05:39:37;;;;;;;1.20;1.02;;;8.70;99.90;;;;;;5104722;28;20040;-62
2022/11/17 05:42:04;;;;;;;5.18;1.48;;;8.70;99.90;;;;;;5096175;28;20044;-61
2022/11/17 05:44:31;;;;;;;4.88;1.27;;;8.70;99.90;;;;;;5105158;28;20053;-62
2022/11/17 05:46:58;;;;;;;2.53;1.35;;;8.70;99.90;;;;;;5090031;28;20040;-62
2022/11/17 05:49:24;;;;;;;2.85;1.60;;;8.70;99.90;;;;;;5102375;28;20052;-62
2022/11/17 05:51:51;;;;;;;4.32;1.33;;;8.60;99.90;;;;;;5110110;28;20036;-62
2022/11/17 05:54:20;;;;;;;2.50;1.23;;;8.60;99.90;;;;;;5100372;28;20104;-62
2022/11/17 05:57:02;;;;;;;2.00;1.20;;;8.60;99.90;;;;;;5109924;28;20047;-63
2022/11/17 06:00:03;;;;;;;3.08;1.25;;;8.60;99.90;;;;;;5102920;28;20051;-62
2022/11/17 06:02:50;;;;;;;2.45;1.05;;;8.60;99.90;;;;;;5050726;28;20044;-63
2022/11/17 06:05:17;;;;;;;2.47;1.08;;;8.60;99.90;;;;;;5073590;28;20055;-62
2022/11/17 06:07:46;;;;;;;3.55;1.40;;;8.50;99.90;;;;;;5095524;28;20114;-62
2022/11/17 06:10:13;;;;;;;2.15;0.95;;;8.50;99.90;;;;;;5081778;28;20105;-62
2022/11/17 06:12:40;;;;;;;3.25;1.20;;;8.50;99.90;;;;;;5075148;28;20063;-62
2022/11/17 06:15:07;;;;;;;5.68;2.38;;;8.50;99.90;;;;;;5101677;28;20561;-62
2022/11/17 06:17:36;;;;;;;5.30;1.30;;;8.50;99.90;;;;;;5075528;28;20411;-62
2022/11/17 06:20:07;;;;;;;5.78;2.58;;;8.50;99.90;;;;;;5099385;28;20039;-62
2022/11/17 06:22:34;;;;;;;2.42;1.10;;;8.50;99.90;;;;;;5091479;28;20048;-63
2022/11/17 06:25:02;;;;;;;4.72;1.08;;;8.50;99.90;;;;;;5099824;28;20044;-63
2022/11/17 06:27:30;;;;;;;8.23;1.55;;;8.50;99.90;;;;;;5075798;28;20441;-61
2022/11/17 06:29:58;;;;;;;5.15;1.33;;;8.50;99.90;;;;;;5080542;28;20040;-61
2022/11/17 06:32:26;;;;;;;4.10;1.77;;;8.50;99.90;;;;;;5092834;28;20058;-62
2022/11/17 06:34:53;;;;;;;5.15;1.08;;;8.40;99.90;;;;;;5074229;28;20050;-62
2022/11/17 06:37:23;;;;;;;4.15;1.35;;;8.40;99.90;;;;;;5093249;28;20044;-61
2022/11/17 06:39:50;;;;;;;1.70;0.82;;;8.40;99.90;;;;;;5097673;28;20074;-61
2022/11/17 06:42:16;;;;;;;2.47;1.10;;;8.40;99.90;;;;;;5093337;28;20044;-63
2022/11/17 06:44:43;;;;;;;4.72;1.10;;;8.40;99.90;;;;;;5100012;28;20403;-63
2022/11/17 06:47:10;;;;;;;5.35;1.40;;;8.40;99.90;;;;;;5108878;28;20047;-64
2022/11/17 06:49:36;;;;;;;5.05;0.95;;;8.40;99.90;;;;;;5084108;28;20162;-62
2022/11/17 06:52:03;;;;;;;2.35;0.90;;;8.40;99.90;;;;;;5089075;28;20054;-62
2022/11/17 06:54:30;;;;;;;4.50;1.10;;;8.40;99.90;;;;;;5105277;28;20056;-62
2022/11/17 06:56:57;;;;;;;2.83;0.95;;;8.40;99.90;;;;;;5086062;28;20126;-62
2022/11/17 06:59:23;;;;;;;5.68;1.38;;;8.40;99.90;;;;;;5076564;28;20060;-61
2022/11/17 07:01:50;;;;;;;2.22;1.00;;;8.40;99.90;;;;;;5099649;28;20143;-60
2022/11/17 07:04:17;;;;;;;2.05;0.80;;;8.40;99.90;;;;;;5091905;28;20310;-61
2022/11/17 07:06:44;;;;;;;5.75;1.23;;;8.30;99.90;;;;;;5101962;28;20202;-61
2022/11/17 07:09:11;;;;;;;2.63;1.23;;;8.40;99.90;;;;;;5091412;28;20093;-61
2022/11/17 07:11:37;;;;;;;5.93;0.93;;;8.40;99.90;;;;;;5083601;28;20132;-62
2022/11/17 07:14:04;;;;;;;7.05;1.17;;;8.40;99.90;;;;;;5090740;28;20557;-62
2022/11/17 07:16:31;;;;;;;7.30;1.38;;;8.30;99.90;;;;;;5098112;28;20126;-62
2022/11/17 07:18:58;;;;;;;5.35;1.38;;;8.30;99.90;;;;;;5110494;28;20104;-63
2022/11/17 07:21:25;;;;;;;2.25;1.08;;;8.40;99.90;;;;;;5079059;28;20134;-62
2022/11/17 07:23:52;;;;;;;3.75;2.05;;;8.30;99.90;;;;;;5110220;28;20052;-63
2022/11/17 07:26:19;;;;;;;3.55;1.05;;;8.30;99.90;;;;;;5061820;28;20494;-62
2022/11/17 07:28:46;;;;;;;4.97;1.40;;;8.40;99.90;;;;;;5085632;28;20044;-62
2022/11/17 07:31:12;;;;;;;3.10;1.10;;;8.30;99.90;;;;;;5099213;28;20044;-62
2022/11/17 07:33:39;;;;;;;3.45;1.50;;;8.40;99.90;;;;;;5075000;28;20186;-62
2022/11/17 07:36:10;;;;;;;4.10;1.05;;;8.30;99.90;;;;;;5092873;28;20109;-62
2022/11/17 07:38:38;;;;;;;2.75;1.00;;;8.30;99.90;;;;;;5087685;28;20043;-61
2022/11/17 07:41:05;;;;;;;3.65;1.00;;;8.40;99.90;;;;;;5104304;28;20104;-61
2022/11/17 07:43:33;;;;;;;3.35;1.17;;;8.40;99.90;;;;;;5103850;28;20046;-63
2022/11/17 07:46:06;;;;;;;4.13;1.50;;;8.40;99.90;;;;;;5073539;28;20413;-61
2022/11/17 07:48:34;;;;;;;3.13;1.10;;;8.30;99.90;;;;;;5101701;28;20048;-63
2022/11/17 07:51:04;;;;;;;6.43;1.27;;;8.40;99.90;;;;;;5106786;28;20061;-62
2022/11/17 07:53:33;;;;;;;3.67;1.30;;;8.30;99.90;;;;;;5081904;28;20412;-62
2022/11/17 07:56:04;;;;;;;3.90;1.33;;;8.30;99.90;;;;;;5107342;28;20058;-62
2022/11/17 07:58:31;;;;;;;1.77;1.00;;;8.40;99.90;;;;;;5102973;28;20047;-64
2022/11/17 08:00:59;;;;;;;5.15;1.25;;;8.40;99.90;;;;;;5107107;28;20096;-63
2022/11/17 08:03:25;;;;;;;2.80;1.52;;;8.40;99.90;;;;;;5082577;28;20052;-62
2022/11/17 08:05:53;;;;;;;4.47;1.48;;;8.40;99.90;;;;;;5089790;28;20083;-62
2022/11/17 08:08:19;;;;;;;3.92;1.48;;;8.40;99.90;;;;;;5100478;28;20422;-62
2022/11/17 08:10:47;;;;;;;5.18;2.28;;;8.40;99.90;;;;;;5070778;28;20048;-62
2022/11/17 08:13:14;;;;;;;8.90;2.95;;;8.50;99.90;;;;;;5101608;28;20089;-61
2022/11/17 08:15:41;;;;;;;2.83;1.65;;;8.40;99.90;;;;;;5088947;28;20477;-62
2022/11/17 08:18:08;;;;;;;2.00;1.50;;;8.40;99.90;;;;;;5082807;28;20062;-62
2022/11/17 08:20:35;;;;;;;3.47;1.80;;;8.40;99.90;;;;;;5088437;28;20143;-63
2022/11/17 08:23:02;;;;;;;3.13;1.50;;;8.40;99.90;;;;;;5098759;28;20049;-62
2022/11/17 08:25:28;;;;;;;4.95;1.88;;;8.40;99.90;;;;;;5089876;28;20101;-62
2022/11/17 08:27:56;;;;;;;5.25;1.27;;;8.50;99.90;;;;;;5096243;28;20472;-62
2022/11/17 08:30:23;;;;;;;2.60;1.42;;;8.50;99.90;;;;;;5091874;28;20048;-63
2022/11/17 08:32:51;;;;;;;5.22;2.45;;;8.50;99.90;;;;;;5093734;28;20126;-63
2022/11/17 08:35:20;;;;;;;3.85;2.05;;;8.50;99.90;;;;;;5094362;28;20059;-63
2022/11/17 08:37:47;;;;;;;4.35;1.48;;;8.60;99.90;;;;;;5091879;28;20055;-62
2022/11/17 08:40:14;;;;;;;3.20;1.90;;;8.50;99.90;;;;;;5096108;28;20040;-62
2022/11/17 08:42:41;;;;;;;5.43;2.15;;;8.50;99.90;;;;;;5071867;28;20101;-62
2022/11/17 08:45:08;;;;;;;2.80;1.63;;;8.50;99.90;;;;;;5098257;28;20119;-63
2022/11/17 08:47:36;;;;;;;7.93;2.33;;;8.50;99.90;;;;;;5071628;28;20047;-62
2022/11/17 08:50:04;;;;;;;3.75;2.83;;;8.60;99.90;;;;;;5081496;28;20047;-62
2022/11/17 08:52:31;;;;;;;3.42;1.92;;;8.50;99.90;;;;;;5088954;28;20052;-63
2022/11/17 08:54:57;;;;;;;5.60;2.40;;;8.50;99.90;;;;;;5081350;28;20105;-63
2022/11/17 08:57:25;;;;;;;3.85;1.98;;;8.60;99.90;;;;;;5093246;28;20074;-62
2022/11/17 08:59:52;;;;;;;6.22;2.95;;;8.60;99.90;;;;;;5079339;28;20513;-64
2022/11/17 09:02:19;;;;;;;3.92;1.92;;;8.60;99.90;;;;;;5094913;28;20056;-63
2022/11/17 09:04:46;;;;;;;3.97;2.30;;;8.60;99.90;;;;;;5074237;28;20080;-63
2022/11/17 09:07:13;;;;;;;5.72;2.22;;;8.70;99.90;;;;;;5108336;28;20079;-62
2022/11/17 09:09:40;;;;;;;5.47;2.10;;;8.60;99.90;;;;;;5096065;28;20417;-62
2022/11/17 09:12:07;;;;;;;3.85;2.38;;;8.70;99.90;;;;;;5106766;28;20490;-62
2022/11/17 09:14:34;;;;;;;3.08;1.40;;;8.70;99.90;;;;;;5069367;28;20080;-61
2022/11/17 09:17:00;;;;;;;4.30;1.50;;;8.70;99.90;;;;;;5104770;28;20134;-62
2022/11/17 09:19:27;;;;;;;9.52;3.28;;;8.70;99.90;;;;;;5082919;28;20086;-62
2022/11/17 09:21:54;;;;;;;6.63;2.10;;;8.70;99.90;;;;;;5102393;28;20083;-66
2022/11/17 09:24:21;;;;;;;4.25;2.13;;;8.70;99.90;;;;;;5103439;28;20055;-63
2022/11/17 09:26:48;;;;;;;5.53;1.80;;;8.70;99.90;;;;;;5100047;28;20383;-62
2022/11/17 09:29:15;;;;;;;7.18;2.38;;;8.70;99.90;;;;;;5087558;28;20062;-62
2022/11/17 09:31:41;;;;;;;3.97;1.90;;;8.80;99.90;;;;;;5077941;28;20130;-62
2022/11/17 09:34:10;;;;;;;6.32;2.30;;;8.80;99.90;;;;;;5104516;28;20052;-62
2022/11/17 09:36:37;;;;;;;9.32;3.10;;;8.80;99.90;;;;;;5094744;28;20448;-62
2022/11/17 09:39:04;;;;;;;7.63;1.85;;;9.00;99.90;;;;;;5104203;28;20043;-63
2022/11/17 09:41:40;;;;;;;6.85;1.95;;;9.00;99.90;;;;;;5094986;28;20117;-62
2022/11/17 09:44:11;;;;;;;2.80;1.88;;;9.00;99.90;;;;;;5070844;28;20135;-62
2022/11/17 09:46:58;;;;;;;4.63;1.77;;;9.10;99.90;;;;;;5078301;28;20065;-62
2022/11/17 09:49:25;;;;;;;3.25;1.75;;;9.10;99.90;;;;;;5087901;28;20470;-62
2022/11/17 09:51:52;;;;;;;9.18;1.98;;;9.30;99.90;;;;;;5096494;28;20082;-62
2022/11/17 09:54:39;;;;;;;3.30;1.50;;;9.30;99.90;;;;;;5090089;28;20047;-62
2022/11/17 09:57:08;;;;;;;4.97;1.15;;;9.40;99.90;;;;;;5087502;28;20071;-62
2022/11/17 09:59:35;;;;;;;4.82;1.60;;;9.50;99.90;;;;;;5057345;28;20052;-62
2022/11/17 10:02:06;;;;;;;5.90;1.65;;;9.60;99.90;;;;;;5056571;28;20055;-62
2022/11/17 10:04:33;;;;;;;5.90;1.35;;;9.60;99.90;;;;;;5073180;28;20099;-61
2022/11/17 10:07:02;;;;;;;2.80;1.65;;;9.70;99.90;;;;;;5085698;28;20077;-62
2022/11/17 10:09:34;;;;;;;4.50;1.52;;;9.70;99.90;;;;;;5057414;28;20059;-61
2022/11/17 10:12:20;;;;;;;5.90;2.15;;;9.70;99.90;;;;;;5086020;28;20047;-61
2022/11/17 10:14:48;;;;;;;3.30;1.42;;;9.70;99.90;;;;;;5091378;28;20047;-61
2022/11/17 10:17:15;;;;;;;5.45;1.73;;;9.80;99.90;;;;;;5097550;28;20048;-62
2022/11/17 10:19:44;;;;;;;3.90;1.60;;;9.90;99.90;;;;;;5093199;28;20075;-62
2022/11/17 10:22:48;;;;;;;3.20;1.55;;;10.00;99.90;;;;;;5098641;28;20514;-62
2022/11/17 10:25:37;;;;;;;5.15;1.75;;;10.00;99.90;;;;;;5073735;28;20051;-62
2022/11/17 10:28:08;;;;;;;6.32;1.73;;;10.00;99.90;;;;;;5102195;28;20048;-62
2022/11/17 10:30:35;;;;;;;6.03;1.73;;;10.00;99.90;;;;;;5067591;28;20040;-62
2022/11/17 10:33:02;;;;;;;6.78;2.28;;;10.00;99.90;;;;;;5098158;28;20040;-62
2022/11/17 10:35:32;;;;;;;3.67;1.67;;;10.10;99.90;;;;;;5093234;28;20087;-61
2022/11/17 10:38:27;;;;;;;2.83;1.00;;;10.00;99.90;;;;;;5080002;28;20048;-61
2022/11/17 10:40:56;;;;;;;4.38;1.40;;;10.00;99.90;;;;;;5107436;28;20090;-61
2022/11/17 10:43:27;;;;;;;6.55;1.95;;;10.00;99.90;;;;;;5075714;28;20306;-61
2022/11/17 10:45:56;;;;;;;4.07;1.50;;;10.00;99.90;;;;;;5093116;28;20136;-61
2022/11/17 10:48:35;;;;;;;10.30;3.05;;;10.10;99.90;;;;;;5079586;28;20079;-61
2022/11/17 10:51:08;;;;;;;4.68;1.77;;;10.10;99.90;;;;;;5092432;28;20079;-61
2022/11/17 10:53:37;;;;;;;4.18;1.30;;;10.10;99.90;;;;;;5097436;28;20122;-61
2022/11/17 10:56:17;;;;;;;4.13;1.80;;;10.10;99.90;;;;;;5094014;28;20108;-62
2022/11/17 10:59:23;;;;;;;5.60;1.83;;;10.10;99.90;;;;;;5085714;28;20051;-61
2022/11/17 11:01:50;;;;;;;6.68;1.50;;;10.20;99.90;;;;;;5091648;28;20052;-62
2022/11/17 11:04:31;;;;;;;6.90;2.20;;;10.20;99.90;;;;;;5083532;28;20052;-61
2022/11/17 11:07:21;;;;;;;5.38;1.75;;;10.20;99.90;;;;;;5091344;28;20121;-62
2022/11/17 11:10:12;;;;;;;5.05;1.77;;;10.20;99.90;;;;;;5101659;28;20090;-61
2022/11/17 11:13:01;;;;;;;5.40;1.98;;;10.20;99.90;;;;;;5094404;28;20079;-62
2022/11/17 11:15:33;;;;;;;6.80;1.80;;;10.10;99.90;;;;;;5102611;28;20070;-61
2022/11/17 11:18:00;;;;;;;17.58;2.00;;;10.20;99.90;;;;;;5088758;28;20078;-61
2022/11/17 11:20:40;;;;;;;2.42;1.25;;;10.20;99.90;;;;;;5082801;28;20046;-62
2022/11/17 11:23:44;;;;;;;3.53;1.50;;;10.20;99.90;;;;;;5074102;28;20048;-61
2022/11/17 11:26:40;;;;;;;4.28;1.40;;;10.20;99.90;;;;;;5087604;28;20095;-61
2022/11/17 11:29:19;;;;;;;8.20;3.17;;;10.30;99.90;;;;;;5099736;28;20051;-61
2022/11/17 11:32:04;;;;;;;4.28;1.70;;;10.30;99.90;;;;;;5108515;28;20170;-61
2022/11/17 11:34:47;;;;;;;7.78;2.40;;;10.30;99.90;;;;;;5081953;28;20050;-60
2022/11/17 11:37:14;;;;;;;3.53;1.73;;;10.40;99.90;;;;;;5088406;28;20056;-61
2022/11/17 11:39:55;;;;;;;8.82;1.58;;;10.40;99.90;;;;;;5066105;28;20052;-60
2022/11/17 11:42:42;;;;;;;4.07;1.30;;;10.40;99.90;;;;;;5071838;28;20044;-60
2022/11/17 11:45:27;;;;;;;5.07;1.42;;;10.40;99.90;;;;;;5080787;28;20499;-60
2022/11/17 11:48:20;;;;;;;5.18;1.55;;;10.40;99.90;;;;;;5089493;28;20429;-60
2022/11/17 11:50:51;;;;;;;6.78;1.70;;;10.40;99.90;;;;;;5098102;28;20044;-60
2022/11/17 11:53:29;;;;;;;7.68;1.83;;;10.50;99.90;;;;;;5109240;28;20096;-61
2022/11/17 11:56:35;;;;;;;11.35;2.15;;;10.60;99.90;;;;;;5097595;28;20043;-60
2022/11/17 11:59:38;;;;;;;6.20;1.67;;;10.50;99.90;;;;;;5071190;28;20555;-60
2022/11/17 12:02:11;;;;;;;5.80;1.45;;;10.50;99.90;;;;;;5083330;28;20091;-60
2022/11/17 12:04:38;;;;;;;7.18;2.20;;;10.50;99.90;;;;;;5092687;28;20100;-60
2022/11/17 12:07:15;;;;;;;7.05;2.55;;;10.50;99.90;;;;;;5079600;28;20118;-60
2022/11/17 12:10:09;;;;;;;8.82;2.00;;;10.50;99.90;;;;;;5092032;28;20080;-61
2022/11/17 12:12:37;;;;;;;5.18;2.20;;;10.50;99.90;;;;;;5094918;28;20040;-61
2022/11/17 12:15:18;;;;;;;4.43;1.70;;;10.50;99.90;;;;;;5062584;28;20545;-61
2022/11/17 12:17:51;;;;;;;3.22;1.88;;;10.50;99.90;;;;;;5094473;28;20054;-61
2022/11/17 12:20:42;;;;;;;3.92;3.05;;;10.60;99.90;;;;;;5093884;28;20127;-61
2022/11/17 12:23:41;;;;;;;4.70;2.10;;;10.60;99.90;;;;;;5092662;28;20086;-61
2022/11/17 12:26:18;;;;;;;6.53;2.42;;;10.60;99.90;;;;;;5064488;28;20070;-60
2022/11/17 12:28:45;;;;;;;7.55;3.38;;;10.60;99.90;;;;;;5070849;28;20560;-60
2022/11/17 12:31:41;;;;;;;6.00;1.95;;;10.70;99.90;;;;;;5098292;28;20498;-60
2022/11/17 12:34:30;;;;;;;7.10;2.10;;;10.70;99.90;;;;;;5070964;28;20067;-61
2022/11/17 12:37:17;;;;;;;6.22;1.73;;;10.80;99.90;;;;;;5093980;28;20044;-60
2022/11/17 12:39:58;;;;;;;6.65;3.20;;;10.80;99.90;;;;;;5074169;28;20467;-60
2022/11/17 12:42:25;;;;;;;4.13;1.73;;;10.90;99.90;;;;;;5096232;28;20547;-62
2022/11/17 12:44:57;;;;;;;8.40;1.73;;;10.90;99.90;;;;;;5074268;28;20117;-60
2022/11/17 12:47:29;;;;;;;6.38;1.60;;;11.00;99.90;;;;;;5095174;28;20044;-60
2022/11/17 12:50:18;;;;;;;1.85;1.30;;;11.10;99.90;;;;;;5108549;28;20134;-60
2022/11/17 12:52:51;;;;;;;7.60;1.85;;;11.10;99.90;;;;;;5080304;28;20044;-60
2022/11/17 12:55:27;;;;;;;6.82;1.35;;;11.20;99.90;;;;;;5109022;28;20086;-61
2022/11/17 12:58:03;;;;;;;7.53;2.83;;;11.20;99.90;;;;;;5093959;28;20368;-60
2022/11/17 13:01:12;;;;;;;4.50;1.40;;;11.20;99.90;;;;;;5056974;28;20057;-60
2022/11/17 13:03:49;;;;;;;8.13;1.58;;;11.30;99.90;;;;;;5047988;28;20328;-60
2022/11/17 13:06:16;;;;;;;4.55;1.27;;;11.40;99.90;;;;;;5088742;28;20063;-59
2022/11/17 13:09:06;;;;;;;2.88;1.60;;;11.40;99.90;;;;;;5098272;28;20054;-61
2022/11/17 13:11:33;;;;;;;5.18;1.48;;;11.30;99.90;;;;;;5088893;28;20112;-60
2022/11/17 13:14:13;;;;;;;5.95;2.25;;;11.40;99.90;;;;;;5097108;28;20122;-61
2022/11/17 13:16:44;;;;;;;8.32;1.80;;;11.40;99.90;;;;;;5106613;28;20040;-60
2022/11/17 13:19:28;;;;;;;3.45;1.83;;;11.50;99.90;;;;;;5079433;28;20126;-61
2022/11/17 13:22:03;;;;;;;4.38;1.88;;;11.50;99.90;;;;;;5088508;28;20123;-61
2022/11/17 13:24:34;;;;;;;3.42;1.52;;;11.50;99.90;;;;;;5098526;28;20075;-61
2022/11/17 13:27:03;;;;;;;4.70;2.00;;;11.60;99.90;;;;;;5088188;28;20048;-64
2022/11/17 13:29:30;;;;;;;3.60;1.60;;;11.70;99.90;;;;;;5097612;28;20047;-61
2022/11/17 13:32:27;;;;;;;2.53;1.35;;;11.70;99.90;;;;;;5092323;28;20822;-60
2022/11/17 13:34:56;;;;;;;3.78;1.80;;;11.70;99.90;;;;;;5057742;28;20115;-61
2022/11/17 13:37:24;;;;;;;5.72;1.65;;;11.70;99.90;;;;;;5092986;28;20044;-60
2022/11/17 13:40:00;;;;;;;6.03;2.00;;;11.80;99.90;;;;;;5102810;28;20384;-61